KDSM

Des Moines International Airport

Des Moines, Iowa, USA
METAR KDSM 151854Z 26020G28KT 10SM FEW040 FEW110 BKN240 OVC300 06/M06 A2992 RMK AO2 PK WND 24028/1847 SLP139 T00611061
Observed Flight Rules
Dec-15 @ 18:54 UTC (an hour ago) Visual Flight Rules
Wind Visibility Clouds
260° at 20 knots
 Gusting to 28 knots
10 miles
  • Few at 4,000' AGL
  • Few at 11,000' AGL
  • Broken at 24,000' AGL
  • Overcast at 30,000' AGL
Temperatures Readings
Current 6°C / 43°F
Dewpoint -6°C / 21°F
Humidity 42%
Altimeter 29.92" Hg
Pressure 1013.9 hPa
Elevation 295
METAR KDSM 151854Z 26020G28KT 10SM FEW040 FEW110 BKN240 OVC300 06/M06 A2992 RMK AO2 PK WND 24028/1847 SLP139 T00611061
Observed Flight Rules
Dec-15 @ 18:54 UTC
(an hour ago)
VFR
Wind Visibility
260° at 20 knots
 Gusting to 28 knots
10 miles
Clouds
  • Few at 4,000' AGL
  • Few at 11,000' AGL
  • Broken at 24,000' AGL
  • Overcast at 30,000' AGL
Temperature Dewpoint
6°C / 43°F -6°C / 21°F
Humidity Altimeter Pressure
42% 29.92" Hg 1013.9 hPa